Time;durP1;ratioP1;P1;durP2;ratioP2;P2;SDS_P1;SDS_P2;PMS_P1;PMS_P2;Temp;Humidity;BMP_temperature;BMP_pressure;BME280_temperature;BME280_humidity;BME280_pressure;Samples;Min_cycle;Max_cycle;Signal;HPM_P1;HPM_P2
2021/12/31 00:00:58;;;;;;;;;0.00;0.00;;;;;;;;5051371;28;8803;-74
2021/12/31 00:03:23;;;;;;;;;0.00;0.00;;;;;;;;5051505;27;8863;-74
2021/12/31 00:05:48;;;;;;;;;0.00;0.00;;;;;;;;5051409;28;8908;-74
2021/12/31 00:08:14;;;;;;;;;0.00;0.00;;;;;;;;5051703;28;8831;-75
2021/12/31 00:10:39;;;;;;;;;0.00;0.00;;;;;;;;5051498;27;8909;-75
2021/12/31 00:13:04;;;;;;;;;0.00;0.00;;;;;;;;5049945;28;8892;-74
2021/12/31 00:15:30;;;;;;;;;0.00;0.00;;;;;;;;5049054;27;8816;-75
2021/12/31 00:17:55;;;;;;;;;0.00;0.00;;;;;;;;5042989;28;8800;-74
2021/12/31 00:20:24;;;;;;;;;0.00;0.00;;;;;;;;5050320;27;8832;-74
2021/12/31 00:23:02;;;;;;;;;0.00;0.00;;;;;;;;5051375;28;8788;-74
2021/12/31 00:25:27;;;;;;;;;0.00;0.00;;;;;;;;5050230;28;8912;-74
2021/12/31 00:27:53;;;;;;;;;0.00;0.00;;;;;;;;5049949;27;8840;-74
2021/12/31 00:30:19;;;;;;;;;0.00;0.00;;;;;;;;5051456;28;8846;-74
2021/12/31 00:32:44;;;;;;;;;0.00;0.00;;;;;;;;5050825;27;8800;-74
2021/12/31 00:35:10;;;;;;;;;0.00;0.00;;;;;;;;5051337;28;8911;-74
2021/12/31 00:37:37;;;;;;;;;0.00;0.00;;;;;;;;5051431;27;8899;-74
2021/12/31 00:40:04;;;;;;;;;0.00;0.00;;;;;;;;5050734;28;8808;-74
2021/12/31 00:42:29;;;;;;;;;0.00;0.00;;;;;;;;5051145;28;8880;-74
2021/12/31 00:44:54;;;;;;;;;0.00;0.00;;;;;;;;5117158;27;8827;-74
2021/12/31 00:47:20;;;;;;;;;0.00;0.00;;;;;;;;5050936;27;8892;-74
2021/12/31 00:49:46;;;;;;;;;0.00;0.00;;;;;;;;5050807;28;8811;-75
2021/12/31 00:52:12;;;;;;;;;0.00;0.00;;;;;;;;5068360;27;8792;-74
2021/12/31 00:54:38;;;;;;;;;0.00;0.00;;;;;;;;5051042;28;8829;-74
2021/12/31 00:57:04;;;;;;;;;0.00;0.00;;;;;;;;5050863;27;8804;-74
2021/12/31 00:59:31;;;;;;;;;0.00;0.00;;;;;;;;5050878;28;8808;-75
2021/12/31 01:01:57;;;;;;;;;0.00;0.00;;;;;;;;5048965;27;8824;-75
2021/12/31 01:04:22;;;;;;;;;0.00;0.00;;;;;;;;5050731;27;8958;-74
2021/12/31 01:06:48;;;;;;;;;0.00;0.00;;;;;;;;5050486;28;8863;-74
2021/12/31 01:09:13;;;;;;;;;0.00;0.00;;;;;;;;5049098;28;8812;-75
2021/12/31 01:11:42;;;;;;;;;0.00;0.00;;;;;;;;5050729;27;8948;-75
2021/12/31 01:14:15;;;;;;;;;0.00;0.00;;;;;;;;5049170;27;8881;-75
2021/12/31 01:16:48;;;;;;;;;0.00;0.00;;;;;;;;5042056;27;8929;-75
2021/12/31 01:21:38;;;;;;;;;0.00;0.00;;;;;;;;5050537;27;8848;-74
2021/12/31 01:24:04;;;;;;;;;0.00;0.00;;;;;;;;5050339;28;9548;-74
2021/12/31 01:26:31;;;;;;;;;0.00;0.00;;;;;;;;5049233;27;8816;-74
2021/12/31 01:28:56;;;;;;;;;0.00;0.00;;;;;;;;5050231;28;9653;-74
2021/12/31 01:31:24;;;;;;;;;0.00;0.00;;;;;;;;5045179;27;8857;-74
2021/12/31 01:33:49;;;;;;;;;0.00;0.00;;;;;;;;5044232;28;8822;-74
2021/12/31 01:36:14;;;;;;;;;0.00;0.00;;;;;;;;5050637;27;8836;-75
2021/12/31 01:38:39;;;;;;;;;0.00;0.00;;;;;;;;5050400;28;8808;-74
2021/12/31 01:41:05;;;;;;;;;0.00;0.00;;;;;;;;5050350;27;8793;-74
2021/12/31 01:43:30;;;;;;;;;0.00;0.00;;;;;;;;5071963;27;9042;-74
2021/12/31 01:45:56;;;;;;;;;0.00;0.00;;;;;;;;5050080;28;8834;-74
2021/12/31 01:48:28;;;;;;;;;0.00;0.00;;;;;;;;5050175;28;8808;-74
2021/12/31 01:50:54;;;;;;;;;0.00;0.00;;;;;;;;5064986;27;8734;-74
2021/12/31 01:53:22;;;;;;;;;0.00;0.00;;;;;;;;5074247;27;8904;-74
2021/12/31 01:55:49;;;;;;;;;0.00;0.00;;;;;;;;5050218;28;8755;-74
2021/12/31 01:58:16;;;;;;;;;0.00;0.00;;;;;;;;5050128;27;8830;-74
2021/12/31 02:00:42;;;;;;;;;0.00;0.00;;;;;;;;5049947;27;8743;-74
2021/12/31 02:03:07;;;;;;;;;0.00;0.00;;;;;;;;5049853;28;9538;-74
2021/12/31 02:05:32;;;;;;;;;0.00;0.00;;;;;;;;5049857;27;8812;-74
2021/12/31 02:07:58;;;;;;;;;0.00;0.00;;;;;;;;5049868;27;8832;-74
2021/12/31 02:10:24;;;;;;;;;0.00;0.00;;;;;;;;5050043;27;8800;-74
2021/12/31 02:12:49;;;;;;;;;0.00;0.00;;;;;;;;5049903;28;8819;-74
2021/12/31 02:15:16;;;;;;;;;0.00;0.00;;;;;;;;5048529;27;8844;-74
2021/12/31 02:17:41;;;;;;;;;0.00;0.00;;;;;;;;5044745;28;8843;-74
2021/12/31 02:20:07;;;;;;;;;0.00;0.00;;;;;;;;5049915;27;8808;-74
2021/12/31 02:22:38;;;;;;;;;0.00;0.00;;;;;;;;5049743;28;8784;-74
2021/12/31 02:25:04;;;;;;;;;0.00;0.00;;;;;;;;5048327;27;8823;-74
2021/12/31 02:27:30;;;;;;;;;0.00;0.00;;;;;;;;5049509;27;8816;-74
2021/12/31 02:29:55;;;;;;;;;0.00;0.00;;;;;;;;5048199;27;8832;-74
2021/12/31 02:32:20;;;;;;;;;0.00;0.00;;;;;;;;5049395;28;8808;-74
2021/12/31 02:34:46;;;;;;;;;0.00;0.00;;;;;;;;5049555;27;8858;-74
2021/12/31 02:37:12;;;;;;;;;0.00;0.00;;;;;;;;5049823;28;8788;-74
2021/12/31 02:39:38;;;;;;;;;0.00;0.00;;;;;;;;5049516;27;8892;-74
2021/12/31 02:42:04;;;;;;;;;0.00;0.00;;;;;;;;5049325;28;8760;-74
2021/12/31 02:44:29;;;;;;;;;0.00;0.00;;;;;;;;5060104;27;8910;-73
2021/12/31 02:46:55;;;;;;;;;0.00;0.00;;;;;;;;5052195;28;8821;-74
2021/12/31 02:49:23;;;;;;;;;0.00;0.00;;;;;;;;5051213;27;8828;-74
2021/12/31 02:51:49;;;;;;;;;0.00;0.00;;;;;;;;5079401;27;8809;-74
2021/12/31 02:54:15;;;;;;;;;0.00;0.00;;;;;;;;5052575;27;8937;-74
2021/12/31 02:56:41;;;;;;;;;0.00;0.00;;;;;;;;5052171;27;8826;-75
2021/12/31 02:59:07;;;;;;;;;0.00;0.00;;;;;;;;5052776;27;8828;-74
2021/12/31 03:01:32;;;;;;;;;0.00;0.00;;;;;;;;5052140;28;8803;-74
2021/12/31 03:03:59;;;;;;;;;0.00;0.00;;;;;;;;5052391;27;8828;-74
2021/12/31 03:06:24;;;;;;;;;0.00;0.00;;;;;;;;5052124;28;8756;-74
2021/12/31 03:08:52;;;;;;;;;0.00;0.00;;;;;;;;5050709;27;9536;-74
2021/12/31 03:11:19;;;;;;;;;0.00;0.00;;;;;;;;5052524;28;8795;-74
2021/12/31 03:13:44;;;;;;;;;0.00;0.00;;;;;;;;5052101;27;8822;-74
2021/12/31 03:16:10;;;;;;;;;0.00;0.00;;;;;;;;5048214;28;8901;-74
2021/12/31 03:18:36;;;;;;;;;0.00;0.00;;;;;;;;5051716;27;8807;-74
2021/12/31 03:21:08;;;;;;;;;0.00;0.00;;;;;;;;5051765;27;8970;-74
2021/12/31 03:23:33;;;;;;;;;0.00;0.00;;;;;;;;5052288;28;8831;-74
2021/12/31 03:25:59;;;;;;;;;0.00;0.00;;;;;;;;5051988;27;8808;-74
2021/12/31 03:28:24;;;;;;;;;0.00;0.00;;;;;;;;5052305;28;8918;-74
2021/12/31 03:30:50;;;;;;;;;0.00;0.00;;;;;;;;5051618;27;9501;-74
2021/12/31 03:33:15;;;;;;;;;0.00;0.00;;;;;;;;5052477;28;8838;-74
2021/12/31 03:35:41;;;;;;;;;0.00;0.00;;;;;;;;5051409;27;8840;-74
2021/12/31 03:38:06;;;;;;;;;0.00;0.00;;;;;;;;5052542;28;8808;-74
2021/12/31 03:40:32;;;;;;;;;0.00;0.00;;;;;;;;5051717;27;8912;-74
2021/12/31 03:42:57;;;;;;;;;0.00;0.00;;;;;;;;5053592;27;8810;-74
2021/12/31 03:45:23;;;;;;;;;0.00;0.00;;;;;;;;5057748;27;9572;-74
2021/12/31 03:47:48;;;;;;;;;0.00;0.00;;;;;;;;5051479;28;8796;-74
2021/12/31 03:50:13;;;;;;;;;0.00;0.00;;;;;;;;5051969;27;8796;-74
2021/12/31 03:52:39;;;;;;;;;0.00;0.00;;;;;;;;5078137;27;8826;-74
2021/12/31 03:55:05;;;;;;;;;0.00;0.00;;;;;;;;5050715;27;8808;-74
2021/12/31 03:57:31;;;;;;;;;86.00;77.25;;;;;;;;5051502;27;9774;-74
2021/12/31 03:59:56;;;;;;;;;0.00;0.00;;;;;;;;5050160;27;8824;-74
2021/12/31 04:02:21;;;;;;;;;0.00;0.00;;;;;;;;5051712;28;8876;-74
2021/12/31 04:04:47;;;;;;;;;0.00;0.00;;;;;;;;5051314;28;8932;-74
2021/12/31 04:07:12;;;;;;;;;0.00;0.00;;;;;;;;5051678;27;9012;-74
2021/12/31 04:09:37;;;;;;;;;0.00;0.00;;;;;;;;5051510;28;8872;-74
2021/12/31 04:12:03;;;;;;;;;0.00;0.00;;;;;;;;5051563;27;8840;-74
2021/12/31 04:14:28;;;;;;;;;0.00;0.00;;;;;;;;5051619;28;9578;-74
2021/12/31 04:16:53;;;;;;;;;0.00;0.00;;;;;;;;5041097;28;8968;-74
2021/12/31 04:19:19;;;;;;;;;0.00;0.00;;;;;;;;5048084;28;8889;-74
2021/12/31 04:21:44;;;;;;;;;0.00;0.00;;;;;;;;5051340;28;8872;-74
2021/12/31 04:24:28;;;;;;;;;0.00;0.00;;;;;;;;5051459;27;9578;-74
2021/12/31 04:26:53;;;;;;;;;0.00;0.00;;;;;;;;5051340;28;8781;-74
2021/12/31 04:29:18;;;;;;;;;0.00;0.00;;;;;;;;5051463;28;8830;-74
2021/12/31 04:31:44;;;;;;;;;0.00;0.00;;;;;;;;5051014;27;8827;-74
2021/12/31 04:34:09;;;;;;;;;0.00;0.00;;;;;;;;5051565;28;8808;-74
2021/12/31 04:36:34;;;;;;;;;0.00;0.00;;;;;;;;5049987;27;8823;-74
2021/12/31 04:39:00;;;;;;;;;0.00;0.00;;;;;;;;5051063;28;8865;-74
2021/12/31 04:41:25;;;;;;;;;0.00;0.00;;;;;;;;5051328;27;8808;-74
2021/12/31 04:43:50;;;;;;;;;0.00;0.00;;;;;;;;5061783;27;8921;-74
2021/12/31 04:46:16;;;;;;;;;0.00;0.00;;;;;;;;5049801;27;8822;-74
2021/12/31 04:48:41;;;;;;;;;0.00;0.00;;;;;;;;5050926;28;9538;-74
2021/12/31 04:51:06;;;;;;;;;0.00;0.00;;;;;;;;5075477;27;8805;-74
2021/12/31 04:53:33;;;;;;;;;0.00;0.00;;;;;;;;5057412;27;8824;-74
2021/12/31 04:55:58;;;;;;;;;0.00;0.00;;;;;;;;5050980;27;8803;-74
2021/12/31 04:58:24;;;;;;;;;0.00;0.00;;;;;;;;5050882;27;8788;-74
2021/12/31 05:00:49;;;;;;;;;0.00;0.00;;;;;;;;5050906;27;8804;-74
2021/12/31 05:03:14;;;;;;;;;0.00;0.00;;;;;;;;5051084;28;8822;-74
2021/12/31 05:05:40;;;;;;;;;0.00;0.00;;;;;;;;5051012;27;8910;-74
2021/12/31 05:08:05;;;;;;;;;0.00;0.00;;;;;;;;5050398;27;8792;-74
2021/12/31 05:10:32;;;;;;;;;0.00;0.00;;;;;;;;5051048;27;8804;-74
2021/12/31 05:12:58;;;;;;;;;0.00;0.00;;;;;;;;5050525;27;8772;-74
2021/12/31 05:15:27;;;;;;;;;0.00;0.00;;;;;;;;5051075;28;8792;-74
2021/12/31 05:17:52;;;;;;;;;0.00;0.00;;;;;;;;5036736;27;8800;-74
2021/12/31 05:20:18;;;;;;;;;0.00;0.00;;;;;;;;5062315;28;8781;-74
2021/12/31 05:22:43;;;;;;;;;0.00;0.00;;;;;;;;5052648;27;8915;-74
2021/12/31 05:25:09;;;;;;;;;0.00;0.00;;;;;;;;5050775;27;8836;-74
2021/12/31 05:27:34;;;;;;;;;0.00;0.00;;;;;;;;5049381;27;9634;-74
2021/12/31 05:30:00;;;;;;;;;0.00;0.00;;;;;;;;5050527;28;8804;-74
2021/12/31 05:32:25;;;;;;;;;0.00;0.00;;;;;;;;5050342;27;8819;-74
2021/12/31 05:34:50;;;;;;;;;0.00;0.00;;;;;;;;5049278;28;8843;-74
2021/12/31 05:37:16;;;;;;;;;0.00;0.00;;;;;;;;5050525;27;8800;-74
2021/12/31 05:39:41;;;;;;;;;0.00;0.00;;;;;;;;5050602;28;8819;-74
2021/12/31 05:42:06;;;;;;;;;0.00;0.00;;;;;;;;5050480;27;8804;-74
2021/12/31 05:44:32;;;;;;;;;0.00;0.00;;;;;;;;5060402;27;8823;-74
2021/12/31 05:46:57;;;;;;;;;0.00;0.00;;;;;;;;5049911;27;8889;-74
2021/12/31 05:49:23;;;;;;;;;0.00;0.00;;;;;;;;5050579;28;8789;-74
2021/12/31 05:51:50;;;;;;;;;0.00;0.00;;;;;;;;5077045;27;9660;-74
2021/12/31 05:54:15;;;;;;;;;0.00;0.00;;;;;;;;5050233;27;8821;-74
2021/12/31 05:56:40;;;;;;;;;0.00;0.00;;;;;;;;5050197;27;8808;-74
2021/12/31 05:59:06;;;;;;;;;0.00;0.00;;;;;;;;5050235;27;8860;-74
2021/12/31 06:01:31;;;;;;;;;0.00;0.00;;;;;;;;5049976;27;8938;-74
2021/12/31 06:03:56;;;;;;;;;0.00;0.00;;;;;;;;5050142;27;8851;-74
2021/12/31 06:06:21;;;;;;;;;0.00;0.00;;;;;;;;5049920;28;8811;-74
2021/12/31 06:08:47;;;;;;;;;0.00;0.00;;;;;;;;5050055;27;9531;-74
2021/12/31 06:11:12;;;;;;;;;0.00;0.00;;;;;;;;5050169;27;8817;-74
2021/12/31 06:13:38;;;;;;;;;0.00;0.00;;;;;;;;5050417;28;8854;-74
2021/12/31 06:16:05;;;;;;;;;0.00;0.00;;;;;;;;5046500;27;9588;-74
2021/12/31 06:18:30;;;;;;;;;0.00;0.00;;;;;;;;5039947;28;8812;-74
2021/12/31 06:20:56;;;;;;;;;0.00;0.00;;;;;;;;5052730;27;8808;-74
2021/12/31 06:23:21;;;;;;;;;0.00;0.00;;;;;;;;5053129;28;8884;-74
2021/12/31 06:25:46;;;;;;;;;0.00;0.00;;;;;;;;5052776;27;8808;-74
2021/12/31 06:28:11;;;;;;;;;0.00;0.00;;;;;;;;5053376;28;8825;-74
2021/12/31 06:30:37;;;;;;;;;0.00;0.00;;;;;;;;5052774;28;8869;-74
2021/12/31 06:33:02;;;;;;;;;0.00;0.00;;;;;;;;5052938;28;9562;-74
2021/12/31 06:35:28;;;;;;;;;0.00;0.00;;;;;;;;5052632;27;8835;-74
2021/12/31 06:37:54;;;;;;;;;0.00;0.00;;;;;;;;5053122;28;8791;-74
2021/12/31 06:40:20;;;;;;;;;0.00;0.00;;;;;;;;5052818;28;8987;-74
2021/12/31 06:42:45;;;;;;;;;0.00;0.00;;;;;;;;5052773;27;8804;-74
2021/12/31 06:45:11;;;;;;;;;0.00;0.00;;;;;;;;5063223;27;8882;-74
2021/12/31 06:47:36;;;;;;;;;0.00;0.00;;;;;;;;5052470;27;8828;-74
2021/12/31 06:50:03;;;;;;;;;0.00;0.00;;;;;;;;5052394;27;8862;-74
2021/12/31 06:52:28;;;;;;;;;0.00;0.00;;;;;;;;5084288;27;9658;-74
2021/12/31 06:54:53;;;;;;;;;0.00;0.00;;;;;;;;5052576;28;8900;-74
2021/12/31 06:57:19;;;;;;;;;0.00;0.00;;;;;;;;5052836;27;8804;-74
2021/12/31 06:59:44;;;;;;;;;0.00;0.00;;;;;;;;5051001;28;8800;-74
2021/12/31 07:02:09;;;;;;;;;0.00;0.00;;;;;;;;5052388;27;8816;-74
2021/12/31 07:04:34;;;;;;;;;0.00;0.00;;;;;;;;5052469;28;8816;-74
2021/12/31 07:07:00;;;;;;;;;0.00;0.00;;;;;;;;5052108;27;8844;-74
2021/12/31 07:09:25;;;;;;;;;98.25;95.00;;;;;;;;5052145;28;8792;-74
2021/12/31 07:11:51;;;;;;;;;0.00;0.00;;;;;;;;5052433;28;8847;-74
2021/12/31 07:14:16;;;;;;;;;0.00;0.00;;;;;;;;5052492;27;8780;-74
2021/12/31 07:16:41;;;;;;;;;0.00;0.00;;;;;;;;5047130;27;8987;-75
2021/12/31 07:19:07;;;;;;;;;0.00;0.00;;;;;;;;5052583;28;8819;-74
2021/12/31 07:21:32;;;;;;;;;0.00;0.00;;;;;;;;5052237;28;8811;-74
2021/12/31 07:23:57;;;;;;;;;0.00;0.00;;;;;;;;5052030;28;8849;-74
2021/12/31 07:26:23;;;;;;;;;0.00;0.00;;;;;;;;5052448;27;8800;-74
2021/12/31 07:28:48;;;;;;;;;0.00;0.00;;;;;;;;5051971;28;8808;-74
2021/12/31 07:31:14;;;;;;;;;0.00;0.00;;;;;;;;5052132;27;8808;-74
2021/12/31 07:33:40;;;;;;;;;0.00;0.00;;;;;;;;5050586;28;8819;-74
2021/12/31 07:36:05;;;;;;;;;0.00;0.00;;;;;;;;5052094;27;8887;-74
2021/12/31 07:38:35;;;;;;;;;0.00;0.00;;;;;;;;5052035;28;8796;-74
2021/12/31 07:41:00;;;;;;;;;0.00;0.00;;;;;;;;5052253;27;8780;-76
2021/12/31 07:43:26;;;;;;;;;0.00;0.00;;;;;;;;5062737;27;8805;-76
2021/12/31 07:45:52;;;;;;;;;0.00;0.00;;;;;;;;5051788;27;8827;-76
2021/12/31 07:48:18;;;;;;;;;0.00;0.00;;;;;;;;5052381;28;8874;-76
2021/12/31 07:50:44;;;;;;;;;0.00;0.00;;;;;;;;5059332;27;9702;-74
2021/12/31 07:53:09;;;;;;;;;0.00;0.00;;;;;;;;5071808;27;8867;-74
2021/12/31 07:55:35;;;;;;;;;0.00;0.00;;;;;;;;5051926;27;8843;-74
2021/12/31 07:58:01;;;;;;;;;0.00;0.00;;;;;;;;5051774;27;8795;-74
2021/12/31 08:00:27;;;;;;;;;0.00;0.00;;;;;;;;5051864;27;8815;-76
2021/12/31 08:02:56;;;;;;;;;0.00;0.00;;;;;;;;5051736;28;8780;-77
2021/12/31 08:05:22;;;;;;;;;0.00;0.00;;;;;;;;5051803;27;8811;-76
2021/12/31 08:07:47;;;;;;;;;0.00;0.00;;;;;;;;5051431;27;8800;-76
2021/12/31 08:10:13;;;;;;;;;0.00;0.00;;;;;;;;5052160;28;8892;-76
2021/12/31 08:12:38;;;;;;;;;0.00;0.00;;;;;;;;5050367;27;8909;-74
2021/12/31 08:15:04;;;;;;;;;0.00;0.00;;;;;;;;5051735;28;8842;-74
2021/12/31 08:17:29;;;;;;;;;0.00;0.00;;;;;;;;5040694;28;8954;-74
2021/12/31 08:19:54;;;;;;;;;0.00;0.00;;;;;;;;5051282;28;9606;-74
2021/12/31 08:22:22;;;;;;;;;0.00;0.00;;;;;;;;5052988;27;8795;-74
2021/12/31 08:24:47;;;;;;;;;0.00;0.00;;;;;;;;5050592;28;8745;-74
2021/12/31 08:27:13;;;;;;;;;0.00;0.00;;;;;;;;5051523;27;9519;-73
2021/12/31 08:29:38;;;;;;;;;0.00;0.00;;;;;;;;5051711;27;8823;-74
2021/12/31 08:32:03;;;;;;;;;0.00;0.00;;;;;;;;5051230;27;8804;-76
2021/12/31 08:34:29;;;;;;;;;0.00;0.00;;;;;;;;5052951;27;8804;-76
2021/12/31 08:36:54;;;;;;;;;0.00;0.00;;;;;;;;5049597;27;8891;-76
2021/12/31 08:39:20;;;;;;;;;0.00;0.00;;;;;;;;5052445;27;8889;-77
2021/12/31 08:41:45;;;;;;;;;0.00;0.00;;;;;;;;5050323;28;8796;-77
2021/12/31 08:44:10;;;;;;;;;0.00;0.00;;;;;;;;5105776;27;8833;-77
2021/12/31 08:46:36;;;;;;;;;0.00;0.00;;;;;;;;5053688;27;8784;-77
2021/12/31 08:49:02;;;;;;;;;0.00;0.00;;;;;;;;5051218;27;8843;-77
2021/12/31 08:51:28;;;;;;;;;0.00;0.00;;;;;;;;5068992;27;8782;-75
2021/12/31 08:53:54;;;;;;;;;0.00;0.00;;;;;;;;5068319;28;8809;-76
2021/12/31 08:56:19;;;;;;;;;0.00;0.00;;;;;;;;5051190;27;8784;-76
2021/12/31 08:58:45;;;;;;;;;0.00;0.00;;;;;;;;5051288;28;9618;-76
2021/12/31 09:01:10;;;;;;;;;0.00;0.00;;;;;;;;5050657;27;8799;-76
2021/12/31 09:03:35;;;;;;;;;0.00;0.00;;;;;;;;5051019;28;8840;-76
2021/12/31 09:06:01;;;;;;;;;0.00;0.00;;;;;;;;5056185;27;8911;-76
2021/12/31 09:08:26;;;;;;;;;0.00;0.00;;;;;;;;5097376;27;8885;-77
2021/12/31 09:10:52;;;;;;;;;0.00;0.00;;;;;;;;5049415;28;8796;-76
2021/12/31 09:13:17;;;;;;;;;0.00;0.00;;;;;;;;5049795;28;8803;-76
2021/12/31 09:15:43;;;;;;;;;0.00;0.00;;;;;;;;5048848;28;8815;-77
2021/12/31 09:18:08;;;;;;;;;0.00;0.00;;;;;;;;5044198;28;8808;-76
2021/12/31 09:20:34;;;;;;;;;0.00;0.00;;;;;;;;5049413;27;8890;-76
2021/12/31 09:22:59;;;;;;;;;0.00;0.00;;;;;;;;5049150;27;8811;-77
2021/12/31 09:25:24;;;;;;;;;0.00;0.00;;;;;;;;5049474;28;8919;-79
2021/12/31 09:27:50;;;;;;;;;0.00;0.00;;;;;;;;5049489;27;8863;-77
2021/12/31 09:30:15;;;;;;;;;0.00;0.00;;;;;;;;5049401;28;8863;-76
2021/12/31 09:32:41;;;;;;;;;0.00;0.00;;;;;;;;5049200;28;8827;-76
2021/12/31 09:35:07;;;;;;;;;0.00;0.00;;;;;;;;5047280;28;8825;-79
2021/12/31 09:37:32;;;;;;;;;0.00;0.00;;;;;;;;5046255;27;8835;-78
2021/12/31 09:39:58;;;;;;;;;0.00;0.00;;;;;;;;5049309;28;8784;-78
2021/12/31 09:42:23;;;;;;;;;0.00;0.00;;;;;;;;5047103;27;8800;-79
2021/12/31 09:44:48;;;;;;;;;0.00;0.00;;;;;;;;5109243;27;8828;-78
2021/12/31 09:47:18;;;;;;;;;0.00;0.00;;;;;;;;5034304;28;8824;-78
2021/12/31 09:49:44;;;;;;;;;0.00;0.00;;;;;;;;5040264;27;9088;-78
2021/12/31 09:52:10;;;;;;;;;0.00;0.00;;;;;;;;5088131;27;8867;-79
2021/12/31 09:54:39;;;;;;;;;0.00;0.00;;;;;;;;5047766;27;8816;-79
2021/12/31 09:57:06;;;;;;;;;0.00;0.00;;;;;;;;5048527;27;8869;-79
2021/12/31 09:59:31;;;;;;;;;0.00;0.00;;;;;;;;5048631;28;8776;-78
2021/12/31 10:01:57;;;;;;;;;0.00;0.00;;;;;;;;5047314;28;8880;-78
2021/12/31 10:04:22;;;;;;;;;0.00;0.00;;;;;;;;5037015;27;8857;-78
2021/12/31 10:07:24;;;;;;;;;0.00;0.00;;;;;;;;5044518;28;8804;-78
2021/12/31 10:10:13;;;;;;;;;0.00;0.00;;;;;;;;5049816;28;8845;-78
2021/12/31 10:12:57;;;;;;;;;0.00;0.00;;;;;;;;5050416;28;8784;-78
2021/12/31 10:15:26;;;;;;;;;0.00;0.00;;;;;;;;5050029;28;9682;-77
2021/12/31 10:17:52;;;;;;;;;0.00;0.00;;;;;;;;5041086;28;8828;-79
2021/12/31 10:20:18;;;;;;;;;0.00;0.00;;;;;;;;5050072;28;8819;-78
2021/12/31 10:22:46;;;;;;;;;0.00;0.00;;;;;;;;5049722;28;8816;-79
2021/12/31 10:25:25;;;;;;;;;0.00;0.00;;;;;;;;5049700;27;8780;-78
2021/12/31 10:27:51;;;;;;;;;0.00;0.00;;;;;;;;5044151;27;8783;-78
2021/12/31 10:30:18;;;;;;;;;0.00;0.00;;;;;;;;5036130;28;9669;-78
2021/12/31 10:32:46;;;;;;;;;0.00;0.00;;;;;;;;5046385;28;8776;-78
2021/12/31 10:35:20;;;;;;;;;0.00;0.00;;;;;;;;5053262;27;8756;-78
2021/12/31 10:37:49;;;;;;;;;0.00;0.00;;;;;;;;5046872;27;8800;-78
2021/12/31 10:40:28;;;;;;;;;0.00;0.00;;;;;;;;5042172;27;8797;-78
2021/12/31 10:43:07;;;;;;;;;0.00;0.00;;;;;;;;5038151;28;8757;-78
2021/12/31 10:45:33;;;;;;;;;0.00;0.00;;;;;;;;5047530;28;8808;-78
2021/12/31 10:48:06;;;;;;;;;0.00;0.00;;;;;;;;5049737;28;8776;-78
2021/12/31 10:50:32;;;;;;;;;0.00;0.00;;;;;;;;5075694;27;8985;-78
2021/12/31 10:53:07;;;;;;;;;0.00;0.00;;;;;;;;5049478;27;8792;-78
2021/12/31 10:55:39;;;;;;;;;0.00;0.00;;;;;;;;5036157;28;8926;-78
2021/12/31 10:58:05;;;;;;;;;0.00;0.00;;;;;;;;5046526;27;8796;-78
2021/12/31 11:00:34;;;;;;;;;0.00;0.00;;;;;;;;5045413;28;8784;-78
2021/12/31 11:03:00;;;;;;;;;0.00;0.00;;;;;;;;5055425;27;8766;-77
2021/12/31 11:05:26;;;;;;;;;0.00;0.00;;;;;;;;5055718;28;8836;-78
2021/12/31 11:07:52;;;;;;;;;0.00;0.00;;;;;;;;5049430;27;8884;-77
2021/12/31 11:10:19;;;;;;;;;0.00;0.00;;;;;;;;5041986;27;8784;-78
2021/12/31 11:12:47;;;;;;;;;0.00;0.00;;;;;;;;5050107;28;8765;-78
2021/12/31 11:15:13;;;;;;;;;0.00;0.00;;;;;;;;5032941;27;8771;-78
2021/12/31 11:17:38;;;;;;;;;0.00;0.00;;;;;;;;5041728;27;8811;-78
2021/12/31 11:20:05;;;;;;;;;0.00;0.00;;;;;;;;5048741;27;8927;-79
2021/12/31 11:22:30;;;;;;;;;0.00;0.00;;;;;;;;5051975;28;8757;-79
2021/12/31 11:25:14;;;;;;;;;0.00;0.00;;;;;;;;5050587;27;9581;-79
2021/12/31 11:27:44;;;;;;;;;0.00;0.00;;;;;;;;5044348;27;8885;-77
2021/12/31 11:30:28;;;;;;;;;0.00;0.00;;;;;;;;5048401;28;8804;-77
2021/12/31 11:32:55;;;;;;;;;0.00;0.00;;;;;;;;5051645;27;8800;-77
2021/12/31 11:35:37;;;;;;;;;0.00;0.00;;;;;;;;5050522;28;8954;-80
2021/12/31 11:38:04;;;;;;;;;0.00;0.00;;;;;;;;5050912;27;8894;-78
2021/12/31 11:40:31;;;;;;;;;0.00;0.00;;;;;;;;5040527;28;8796;-79
2021/12/31 11:43:15;;;;;;;;;0.00;0.00;;;;;;;;5051598;27;8907;-78
2021/12/31 11:45:41;;;;;;;;;0.00;0.00;;;;;;;;5046194;28;8796;-78
2021/12/31 11:48:25;;;;;;;;;0.00;0.00;;;;;;;;5055107;27;8823;-79
2021/12/31 11:51:03;;;;;;;;;0.00;0.00;;;;;;;;5055548;27;8788;-78
2021/12/31 11:53:28;;;;;;;;;0.00;0.00;;;;;;;;5045216;27;8839;-78
2021/12/31 11:55:54;;;;;;;;;0.00;0.00;;;;;;;;5045130;28;8850;-79
2021/12/31 11:58:35;;;;;;;;;0.00;0.00;;;;;;;;5057429;27;8818;-79
2021/12/31 12:01:20;;;;;;;;;0.00;0.00;;;;;;;;5059870;27;8878;-74
2021/12/31 12:03:46;;;;;;;;;0.00;0.00;;;;;;;;5050554;27;8791;-74
2021/12/31 12:06:31;;;;;;;;;0.00;0.00;;;;;;;;5051757;28;8834;-74
2021/12/31 12:08:56;;;;;;;;;0.00;0.00;;;;;;;;5051016;27;8804;-73
2021/12/31 12:11:51;;;;;;;;;0.00;0.00;;;;;;;;5050188;27;8824;-74
2021/12/31 12:14:36;;;;;;;;;0.00;0.00;;;;;;;;5093728;28;8780;-75
2021/12/31 12:17:02;;;;;;;;;0.00;0.00;;;;;;;;5047270;27;8951;-76
2021/12/31 12:19:46;;;;;;;;;0.00;0.00;;;;;;;;5043762;28;8932;-76
2021/12/31 12:22:25;;;;;;;;;0.00;0.00;;;;;;;;5049953;27;8865;-76
2021/12/31 12:24:51;;;;;;;;;0.00;0.00;;;;;;;;5051125;27;8792;-76
2021/12/31 12:27:16;;;;;;;;;0.00;0.00;;;;;;;;5049874;28;8850;-75
2021/12/31 12:29:42;;;;;;;;;0.00;0.00;;;;;;;;5049522;28;9551;-75
2021/12/31 12:32:08;;;;;;;;;0.00;0.00;;;;;;;;5051061;28;8784;-76
2021/12/31 12:34:34;;;;;;;;;0.00;0.00;;;;;;;;5049870;27;8810;-75
2021/12/31 12:37:01;;;;;;;;;0.00;0.00;;;;;;;;5050655;28;8891;-74
2021/12/31 12:39:26;;;;;;;;;0.00;0.00;;;;;;;;5041602;28;10039;-75
2021/12/31 12:41:51;;;;;;;;;0.00;0.00;;;;;;;;5050998;27;8820;-76
2021/12/31 12:44:17;;;;;;;;;0.00;0.00;;;;;;;;5072791;27;8957;-76
2021/12/31 12:46:55;;;;;;;;;0.00;0.00;;;;;;;;5045690;28;8799;-75
2021/12/31 12:49:23;;;;;;;;;0.00;0.00;;;;;;;;5036668;28;8803;-76
2021/12/31 12:51:48;;;;;;;;;0.00;0.00;;;;;;;;5072162;27;8831;-76
2021/12/31 12:54:21;;;;;;;;;0.00;0.00;;;;;;;;5041653;27;8834;-76
2021/12/31 12:56:50;;;;;;;;;0.00;0.00;;;;;;;;5032904;27;8783;-77
2021/12/31 12:59:21;;;;;;;;;0.00;0.00;;;;;;;;5044673;28;8776;-76
2021/12/31 13:01:46;;;;;;;;;0.00;0.00;;;;;;;;5051043;28;9788;-76
2021/12/31 13:04:13;;;;;;;;;0.00;0.00;;;;;;;;5051116;28;8836;-77
2021/12/31 13:06:42;;;;;;;;;0.00;0.00;;;;;;;;5050966;27;8792;-76
2021/12/31 13:09:13;;;;;;;;;0.00;0.00;;;;;;;;5049771;28;8816;-76
2021/12/31 13:11:39;;;;;;;;;0.00;0.00;;;;;;;;5051102;27;8765;-77
2021/12/31 13:14:10;;;;;;;;;0.00;0.00;;;;;;;;5051250;28;8866;-77
2021/12/31 13:16:36;;;;;;;;;0.00;0.00;;;;;;;;5047598;28;8867;-77
2021/12/31 13:19:06;;;;;;;;;0.00;0.00;;;;;;;;5048127;28;8804;-77
2021/12/31 13:21:31;;;;;;;;;0.00;0.00;;;;;;;;5049321;27;8792;-77
2021/12/31 13:23:57;;;;;;;;;0.00;0.00;;;;;;;;5051064;27;8859;-77
2021/12/31 13:26:25;;;;;;;;;0.00;0.00;;;;;;;;5050922;28;8838;-77
2021/12/31 13:28:50;;;;;;;;;0.00;0.00;;;;;;;;5050589;27;8873;-77
2021/12/31 13:31:17;;;;;;;;;0.00;0.00;;;;;;;;5050927;28;8824;-77
2021/12/31 13:33:43;;;;;;;;;0.00;0.00;;;;;;;;5049682;27;8788;-77
2021/12/31 13:36:28;;;;;;;;;0.00;0.00;;;;;;;;5050860;28;8776;-77
2021/12/31 13:38:59;;;;;;;;;0.00;0.00;;;;;;;;5039099;28;8792;-77
2021/12/31 13:41:25;;;;;;;;;0.00;0.00;;;;;;;;5050612;27;8935;-77
2021/12/31 13:43:54;;;;;;;;;0.00;0.00;;;;;;;;5089318;27;9785;-77
2021/12/31 13:46:34;;;;;;;;;0.00;0.00;;;;;;;;5069505;27;8784;-77
2021/12/31 13:49:09;;;;;;;;;0.00;0.00;;;;;;;;5049122;27;9346;-77
2021/12/31 13:51:39;;;;;;;;;0.00;0.00;;;;;;;;5061870;27;8909;-78
2021/12/31 13:54:05;;;;;;;;;0.00;0.00;;;;;;;;5038409;28;8835;-77
2021/12/31 13:56:33;;;;;;;;;0.00;0.00;;;;;;;;5050437;27;8844;-77
2021/12/31 13:59:13;;;;;;;;;0.00;0.00;;;;;;;;5049005;27;8772;-77
2021/12/31 14:01:39;;;;;;;;;0.00;0.00;;;;;;;;5047203;28;8796;-77
2021/12/31 14:04:10;;;;;;;;;0.00;0.00;;;;;;;;5050629;28;9101;-77
2021/12/31 14:06:36;;;;;;;;;0.00;0.00;;;;;;;;5049981;27;8804;-77
2021/12/31 14:09:03;;;;;;;;;0.00;0.00;;;;;;;;5042832;27;8884;-77
2021/12/31 14:11:28;;;;;;;;;0.00;0.00;;;;;;;;5039702;28;8866;-77
2021/12/31 14:13:53;;;;;;;;;0.00;0.00;;;;;;;;5048535;27;8808;-77
2021/12/31 14:16:19;;;;;;;;;0.00;0.00;;;;;;;;5042369;28;8849;-76
2021/12/31 14:18:44;;;;;;;;;0.00;0.00;;;;;;;;5043716;28;8808;-76
2021/12/31 14:21:09;;;;;;;;;0.00;0.00;;;;;;;;5044421;28;8879;-81
2021/12/31 14:23:35;;;;;;;;;0.00;0.00;;;;;;;;5048369;28;8823;-79
2021/12/31 14:26:00;;;;;;;;;0.00;0.00;;;;;;;;5040443;27;8858;-76
2021/12/31 14:28:26;;;;;;;;;0.00;0.00;;;;;;;;5049849;28;8849;-77
2021/12/31 14:30:51;;;;;;;;;0.00;0.00;;;;;;;;5049182;28;8824;-76
2021/12/31 14:33:19;;;;;;;;;0.00;0.00;;;;;;;;5049990;27;9539;-77
2021/12/31 14:35:47;;;;;;;;;0.00;0.00;;;;;;;;5049250;27;8792;-77
2021/12/31 14:38:20;;;;;;;;;0.00;0.00;;;;;;;;5050102;28;8836;-79
2021/12/31 14:40:51;;;;;;;;;0.00;0.00;;;;;;;;5038705;28;8800;-77
2021/12/31 14:43:16;;;;;;;;;0.00;0.00;;;;;;;;5061974;27;8814;-78
2021/12/31 14:45:42;;;;;;;;;0.00;0.00;;;;;;;;5050795;27;8844;-78
2021/12/31 14:48:07;;;;;;;;;0.00;0.00;;;;;;;;5053076;28;8861;-74
2021/12/31 14:50:32;;;;;;;;;0.00;0.00;;;;;;;;5052508;27;8858;-74
2021/12/31 14:52:59;;;;;;;;;0.00;0.00;;;;;;;;5082262;27;8831;-74
2021/12/31 14:55:25;;;;;;;;;0.00;0.00;;;;;;;;5052596;28;8842;-73
2021/12/31 14:57:50;;;;;;;;;0.00;0.00;;;;;;;;5052207;27;8796;-73